sensor_id;sensor_type;location;lat;lon;timestamp;pressure;altitude;pressure_sealevel;temperature;humidity
37860;BME280;23698;52.014;5.190;2023-03-19T00:01:28;100650.25;;;11.18;100.00
37860;BME280;23698;52.014;5.190;2023-03-19T00:04:24;100658.22;;;11.26;100.00
37860;BME280;23698;52.014;5.190;2023-03-19T00:07:21;100665.25;;;11.13;100.00
37860;BME280;23698;52.014;5.190;2023-03-19T00:10:12;100678.81;;;11.13;100.00
37860;BME280;23698;52.014;5.190;2023-03-19T00:13:02;100690.00;;;11.04;100.00
37860;BME280;23698;52.014;5.190;2023-03-19T00:15:55;100699.97;;;10.96;100.00
37860;BME280;23698;52.014;5.190;2023-03-19T00:18:52;100715.22;;;10.98;100.00
37860;BME280;23698;52.014;5.190;2023-03-19T00:21:47;100724.53;;;10.88;100.00
37860;BME280;23698;52.014;5.190;2023-03-19T00:24:46;100735.25;;;10.96;100.00
37860;BME280;23698;52.014;5.190;2023-03-19T00:27:40;100742.16;;;10.99;100.00
37860;BME280;23698;52.014;5.190;2023-03-19T00:30:39;100753.09;;;10.84;100.00
37860;BME280;23698;52.014;5.190;2023-03-19T00:33:34;100759.28;;;11.00;100.00
37860;BME280;23698;52.014;5.190;2023-03-19T00:36:26;100758.81;;;10.96;100.00
37860;BME280;23698;52.014;5.190;2023-03-19T00:39:33;100756.50;;;10.93;100.00
37860;BME280;23698;52.014;5.190;2023-03-19T00:42:25;100759.03;;;10.94;100.00
37860;BME280;23698;52.014;5.190;2023-03-19T00:45:24;100759.53;;;10.83;100.00
37860;BME280;23698;52.014;5.190;2023-03-19T00:48:19;100756.72;;;10.70;100.00
37860;BME280;23698;52.014;5.190;2023-03-19T00:51:26;100776.34;;;10.72;100.00
37860;BME280;23698;52.014;5.190;2023-03-19T00:54:18;100795.59;;;10.55;100.00
37860;BME280;23698;52.014;5.190;2023-03-19T00:57:09;100811.78;;;10.49;100.00
37860;BME280;23698;52.014;5.190;2023-03-19T01:00:10;100820.91;;;10.63;100.00
37860;BME280;23698;52.014;5.190;2023-03-19T01:03:02;100840.25;;;10.60;100.00
37860;BME280;23698;52.014;5.190;2023-03-19T01:05:58;100843.78;;;10.60;100.00
37860;BME280;23698;52.014;5.190;2023-03-19T01:08:52;100847.28;;;10.54;100.00
37860;BME280;23698;52.014;5.190;2023-03-19T01:11:44;100859.06;;;10.46;100.00
37860;BME280;23698;52.014;5.190;2023-03-19T01:14:36;100858.34;;;10.37;100.00
37860;BME280;23698;52.014;5.190;2023-03-19T01:17:30;100861.44;;;10.34;100.00
37860;BME280;23698;52.014;5.190;2023-03-19T01:20:22;100876.34;;;10.30;100.00
37860;BME280;23698;52.014;5.190;2023-03-19T01:23:20;100886.84;;;10.33;100.00
37860;BME280;23698;52.014;5.190;2023-03-19T01:26:13;100898.53;;;10.34;100.00
37860;BME280;23698;52.014;5.190;2023-03-19T01:29:11;100910.00;;;10.36;100.00
37860;BME280;23698;52.014;5.190;2023-03-19T01:32:04;100925.91;;;10.39;100.00
37860;BME280;23698;52.014;5.190;2023-03-19T01:35:13;100930.94;;;10.42;100.00
37860;BME280;23698;52.014;5.190;2023-03-19T01:38:12;100935.41;;;10.50;100.00
37860;BME280;23698;52.014;5.190;2023-03-19T01:41:12;100944.13;;;10.45;100.00
37860;BME280;23698;52.014;5.190;2023-03-19T01:44:21;100959.53;;;10.45;100.00
37860;BME280;23698;52.014;5.190;2023-03-19T01:47:37;100964.94;;;10.45;100.00
37860;BME280;23698;52.014;5.190;2023-03-19T01:50:36;100975.50;;;10.39;100.00
37860;BME280;23698;52.014;5.190;2023-03-19T01:53:58;100987.22;;;10.40;100.00
37860;BME280;23698;52.014;5.190;2023-03-19T01:57:11;100992.88;;;10.30;100.00
37860;BME280;23698;52.014;5.190;2023-03-19T02:00:25;101002.13;;;10.21;100.00
37860;BME280;23698;52.014;5.190;2023-03-19T02:03:26;101016.22;;;10.16;100.00
37860;BME280;23698;52.014;5.190;2023-03-19T02:06:33;101023.81;;;10.36;100.00
37860;BME280;23698;52.014;5.190;2023-03-19T02:09:28;101020.28;;;10.35;100.00
37860;BME280;23698;52.014;5.190;2023-03-19T02:12:21;101030.81;;;10.30;100.00
37860;BME280;23698;52.014;5.190;2023-03-19T02:15:10;101044.41;;;10.22;100.00
37860;BME280;23698;52.014;5.190;2023-03-19T02:18:09;101052.94;;;10.19;100.00
37860;BME280;23698;52.014;5.190;2023-03-19T02:21:10;101054.59;;;10.05;100.00
37860;BME280;23698;52.014;5.190;2023-03-19T02:24:05;101063.13;;;9.94;100.00
37860;BME280;23698;52.014;5.190;2023-03-19T02:27:30;101086.38;;;9.88;100.00
37860;BME280;23698;52.014;5.190;2023-03-19T02:30:25;101098.75;;;10.06;100.00
37860;BME280;23698;52.014;5.190;2023-03-19T02:33:28;101103.06;;;10.15;100.00
37860;BME280;23698;52.014;5.190;2023-03-19T02:36:19;101101.28;;;10.07;100.00
37860;BME280;23698;52.014;5.190;2023-03-19T02:39:17;101111.94;;;10.09;100.00
37860;BME280;23698;52.014;5.190;2023-03-19T02:42:11;101118.38;;;10.08;100.00
37860;BME280;23698;52.014;5.190;2023-03-19T02:45:17;101121.41;;;9.90;100.00
37860;BME280;23698;52.014;5.190;2023-03-19T02:48:08;101135.00;;;9.81;100.00
37860;BME280;23698;52.014;5.190;2023-03-19T02:51:04;101144.69;;;9.76;100.00
37860;BME280;23698;52.014;5.190;2023-03-19T02:54:02;101155.28;;;9.86;100.00
37860;BME280;23698;52.014;5.190;2023-03-19T02:56:55;101157.00;;;9.78;100.00
37860;BME280;23698;52.014;5.190;2023-03-19T02:59:45;101164.94;;;9.80;100.00
37860;BME280;23698;52.014;5.190;2023-03-19T03:02:40;101164.91;;;9.88;100.00
37860;BME280;23698;52.014;5.190;2023-03-19T03:05:49;101156.53;;;9.75;100.00
37860;BME280;23698;52.014;5.190;2023-03-19T03:08:39;101164.34;;;9.70;100.00
37860;BME280;23698;52.014;5.190;2023-03-19T03:11:30;101175.53;;;9.67;100.00
37860;BME280;23698;52.014;5.190;2023-03-19T03:14:23;101179.97;;;9.59;100.00
37860;BME280;23698;52.014;5.190;2023-03-19T03:17:21;101192.28;;;9.70;100.00
37860;BME280;23698;52.014;5.190;2023-03-19T03:20:17;101204.75;;;9.71;100.00
37860;BME280;23698;52.014;5.190;2023-03-19T03:23:12;101207.06;;;9.51;100.00
37860;BME280;23698;52.014;5.190;2023-03-19T03:26:05;101216.56;;;9.47;100.00
37860;BME280;23698;52.014;5.190;2023-03-19T03:28:56;101219.97;;;9.41;100.00
37860;BME280;23698;52.014;5.190;2023-03-19T03:31:54;101233.19;;;9.36;100.00
37860;BME280;23698;52.014;5.190;2023-03-19T03:34:47;101241.63;;;9.33;100.00
37860;BME280;23698;52.014;5.190;2023-03-19T03:37:48;101241.44;;;9.42;100.00
37860;BME280;23698;52.014;5.190;2023-03-19T03:40:39;101251.63;;;9.32;100.00
37860;BME280;23698;52.014;5.190;2023-03-19T03:43:31;101265.47;;;9.37;100.00
37860;BME280;23698;52.014;5.190;2023-03-19T03:46:21;101271.72;;;9.38;100.00
37860;BME280;23698;52.014;5.190;2023-03-19T03:49:15;101267.84;;;9.32;100.00
37860;BME280;23698;52.014;5.190;2023-03-19T03:52:08;101271.25;;;9.26;100.00
37860;BME280;23698;52.014;5.190;2023-03-19T03:55:03;101264.16;;;9.17;100.00
37860;BME280;23698;52.014;5.190;2023-03-19T03:58:04;101265.38;;;9.14;100.00
37860;BME280;23698;52.014;5.190;2023-03-19T04:00:57;101268.75;;;9.00;100.00
37860;BME280;23698;52.014;5.190;2023-03-19T04:03:50;101282.13;;;8.93;100.00
37860;BME280;23698;52.014;5.190;2023-03-19T04:06:40;101293.63;;;8.87;100.00
37860;BME280;23698;52.014;5.190;2023-03-19T04:09:49;101299.03;;;8.87;100.00
37860;BME280;23698;52.014;5.190;2023-03-19T04:12:44;101301.91;;;8.77;100.00
37860;BME280;23698;52.014;5.190;2023-03-19T04:15:34;101320.34;;;8.74;100.00
37860;BME280;23698;52.014;5.190;2023-03-19T04:18:28;101343.13;;;8.71;100.00
37860;BME280;23698;52.014;5.190;2023-03-19T04:21:18;101354.78;;;8.63;100.00
37860;BME280;23698;52.014;5.190;2023-03-19T04:24:10;101359.47;;;8.61;100.00
37860;BME280;23698;52.014;5.190;2023-03-19T04:27:03;101362.06;;;8.79;100.00
37860;BME280;23698;52.014;5.190;2023-03-19T04:30:01;101363.56;;;8.82;100.00
37860;BME280;23698;52.014;5.190;2023-03-19T04:32:51;101354.09;;;8.69;100.00
37860;BME280;23698;52.014;5.190;2023-03-19T04:35:53;101341.59;;;8.60;100.00
37860;BME280;23698;52.014;5.190;2023-03-19T04:38:48;101339.38;;;8.47;100.00
37860;BME280;23698;52.014;5.190;2023-03-19T04:41:39;101331.44;;;8.46;100.00
37860;BME280;23698;52.014;5.190;2023-03-19T04:44:47;101330.91;;;8.50;100.00
37860;BME280;23698;52.014;5.190;2023-03-19T04:47:42;101325.50;;;8.50;100.00
37860;BME280;23698;52.014;5.190;2023-03-19T04:50:34;101314.50;;;8.36;100.00
37860;BME280;23698;52.014;5.190;2023-03-19T04:53:25;101312.09;;;8.24;100.00
37860;BME280;23698;52.014;5.190;2023-03-19T04:56:22;101305.84;;;8.24;100.00
37860;BME280;23698;52.014;5.190;2023-03-19T04:59:16;101313.94;;;8.16;100.00
37860;BME280;23698;52.014;5.190;2023-03-19T05:02:09;101310.34;;;8.07;100.00
37860;BME280;23698;52.014;5.190;2023-03-19T05:05:04;101305.47;;;8.02;100.00
37860;BME280;23698;52.014;5.190;2023-03-19T05:08:04;101307.44;;;7.92;100.00
37860;BME280;23698;52.014;5.190;2023-03-19T05:10:55;101323.50;;;7.93;100.00
37860;BME280;23698;52.014;5.190;2023-03-19T05:13:51;101327.03;;;7.94;100.00
37860;BME280;23698;52.014;5.190;2023-03-19T05:16:48;101336.63;;;7.88;100.00
37860;BME280;23698;52.014;5.190;2023-03-19T05:19:49;101332.53;;;7.76;100.00
37860;BME280;23698;52.014;5.190;2023-03-19T05:22:41;101338.03;;;7.66;100.00
37860;BME280;23698;52.014;5.190;2023-03-19T05:25:39;101351.38;;;7.68;100.00
37860;BME280;23698;52.014;5.190;2023-03-19T05:28:35;101356.22;;;7.64;100.00
37860;BME280;23698;52.014;5.190;2023-03-19T05:31:39;101368.69;;;7.65;100.00
37860;BME280;23698;52.014;5.190;2023-03-19T05:34:29;101370.78;;;7.71;100.00
37860;BME280;23698;52.014;5.190;2023-03-19T05:37:24;101380.53;;;7.64;100.00
37860;BME280;23698;52.014;5.190;2023-03-19T05:40:22;101397.75;;;7.71;100.00
37860;BME280;23698;52.014;5.190;2023-03-19T05:43:14;101404.38;;;7.77;100.00
37860;BME280;23698;52.014;5.190;2023-03-19T05:46:10;101404.75;;;7.82;100.00
37860;BME280;23698;52.014;5.190;2023-03-19T05:49:02;101398.88;;;7.61;100.00
37860;BME280;23698;52.014;5.190;2023-03-19T05:51:56;101384.06;;;7.65;100.00
37860;BME280;23698;52.014;5.190;2023-03-19T05:54:50;101359.97;;;7.71;100.00
37860;BME280;23698;52.014;5.190;2023-03-19T05:57:57;101298.03;;;7.62;100.00
37860;BME280;23698;52.014;5.190;2023-03-19T06:00:59;101267.56;;;7.69;100.00
37860;BME280;23698;52.014;5.190;2023-03-19T06:03:56;101223.03;;;7.73;100.00
37860;BME280;23698;52.014;5.190;2023-03-19T06:06:50;101201.13;;;7.85;100.00
37860;BME280;23698;52.014;5.190;2023-03-19T06:09:40;101185.94;;;7.84;100.00
37860;BME280;23698;52.014;5.190;2023-03-19T06:12:35;101177.22;;;8.06;100.00
37860;BME280;23698;52.014;5.190;2023-03-19T06:15:53;101159.81;;;8.17;100.00
37860;BME280;23698;52.014;5.190;2023-03-19T06:18:50;101150.88;;;8.17;100.00
37860;BME280;23698;52.014;5.190;2023-03-19T06:21:52;101141.59;;;8.36;100.00
37860;BME280;23698;52.014;5.190;2023-03-19T06:24:47;101128.78;;;8.46;100.00
37860;BME280;23698;52.014;5.190;2023-03-19T06:27:42;101112.22;;;8.24;100.00
37860;BME280;23698;52.014;5.190;2023-03-19T06:30:44;101099.38;;;8.35;100.00
37860;BME280;23698;52.014;5.190;2023-03-19T06:33:57;101081.84;;;8.30;100.00
37860;BME280;23698;52.014;5.190;2023-03-19T06:37:03;101081.00;;;8.46;100.00
37860;BME280;23698;52.014;5.190;2023-03-19T06:39:58;101084.03;;;8.52;100.00
37860;BME280;23698;52.014;5.190;2023-03-19T06:42:54;101084.13;;;8.75;100.00
37860;BME280;23698;52.014;5.190;2023-03-19T06:45:45;101075.81;;;8.84;100.00
37860;BME280;23698;52.014;5.190;2023-03-19T06:48:36;101069.53;;;8.92;100.00
37860;BME280;23698;52.014;5.190;2023-03-19T06:51:28;101060.75;;;8.90;100.00
37860;BME280;23698;52.014;5.190;2023-03-19T06:54:24;101044.47;;;8.67;100.00
37860;BME280;23698;52.014;5.190;2023-03-19T06:57:26;101045.72;;;8.87;100.00
37860;BME280;23698;52.014;5.190;2023-03-19T07:00:33;101046.44;;;8.81;100.00
37860;BME280;23698;52.014;5.190;2023-03-19T07:03:20;101043.56;;;8.83;100.00
37860;BME280;23698;52.014;5.190;2023-03-19T07:06:07;101052.63;;;8.98;100.00
37860;BME280;23698;52.014;5.190;2023-03-19T07:08:55;101064.63;;;8.87;100.00
37860;BME280;23698;52.014;5.190;2023-03-19T07:11:41;101063.00;;;8.70;100.00
37860;BME280;23698;52.014;5.190;2023-03-19T07:14:27;101078.84;;;8.90;100.00
37860;BME280;23698;52.014;5.190;2023-03-19T07:17:13;101091.06;;;8.77;100.00
37860;BME280;23698;52.014;5.190;2023-03-19T07:20:00;101095.88;;;8.98;100.00
37860;BME280;23698;52.014;5.190;2023-03-19T07:22:46;101096.31;;;8.71;100.00
37860;BME280;23698;52.014;5.190;2023-03-19T07:25:34;101114.81;;;8.98;100.00
37860;BME280;23698;52.014;5.190;2023-03-19T07:28:20;101114.84;;;8.90;100.00
37860;BME280;23698;52.014;5.190;2023-03-19T07:31:07;101117.75;;;8.72;100.00
37860;BME280;23698;52.014;5.190;2023-03-19T07:33:53;101111.53;;;9.11;100.00
37860;BME280;23698;52.014;5.190;2023-03-19T07:36:39;101109.72;;;9.03;100.00
37860;BME280;23698;52.014;5.190;2023-03-19T07:39:25;101102.47;;;8.96;100.00
37860;BME280;23698;52.014;5.190;2023-03-19T07:42:13;101105.97;;;9.04;100.00
37860;BME280;23698;52.014;5.190;2023-03-19T07:45:00;101101.31;;;8.90;100.00
37860;BME280;23698;52.014;5.190;2023-03-19T07:47:48;101099.16;;;9.17;100.00
37860;BME280;23698;52.014;5.190;2023-03-19T07:50:35;101095.38;;;9.26;100.00
37860;BME280;23698;52.014;5.190;2023-03-19T07:53:22;101102.59;;;9.42;100.00
37860;BME280;23698;52.014;5.190;2023-03-19T07:56:08;101102.78;;;9.40;100.00
37860;BME280;23698;52.014;5.190;2023-03-19T07:58:56;101097.56;;;9.31;100.00
37860;BME280;23698;52.014;5.190;2023-03-19T08:01:43;101108.19;;;9.40;100.00
37860;BME280;23698;52.014;5.190;2023-03-19T08:04:30;101121.22;;;8.97;100.00
37860;BME280;23698;52.014;5.190;2023-03-19T08:07:16;101115.19;;;8.87;100.00
37860;BME280;23698;52.014;5.190;2023-03-19T08:10:04;101114.69;;;8.83;100.00
37860;BME280;23698;52.014;5.190;2023-03-19T08:12:51;101113.47;;;9.34;100.00
37860;BME280;23698;52.014;5.190;2023-03-19T08:15:39;101117.09;;;9.49;100.00
37860;BME280;23698;52.014;5.190;2023-03-19T08:18:25;101104.28;;;9.43;100.00
37860;BME280;23698;52.014;5.190;2023-03-19T08:21:12;101096.28;;;9.50;100.00
37860;BME280;23698;52.014;5.190;2023-03-19T08:23:58;101086.47;;;9.49;100.00
37860;BME280;23698;52.014;5.190;2023-03-19T08:26:47;101082.88;;;9.79;100.00
37860;BME280;23698;52.014;5.190;2023-03-19T08:29:33;101069.53;;;9.78;100.00
37860;BME280;23698;52.014;5.190;2023-03-19T08:32:22;101058.19;;;9.59;100.00
37860;BME280;23698;52.014;5.190;2023-03-19T08:35:09;101079.75;;;9.44;100.00
37860;BME280;23698;52.014;5.190;2023-03-19T08:37:56;101082.63;;;9.66;100.00
37860;BME280;23698;52.014;5.190;2023-03-19T08:40:42;101078.34;;;9.25;100.00
37860;BME280;23698;52.014;5.190;2023-03-19T08:43:29;101092.25;;;9.45;100.00
37860;BME280;23698;52.014;5.190;2023-03-19T08:46:15;101094.25;;;9.52;100.00
37860;BME280;23698;52.014;5.190;2023-03-19T08:49:04;101096.94;;;9.52;100.00
37860;BME280;23698;52.014;5.190;2023-03-19T08:51:50;101093.28;;;9.44;100.00
37860;BME280;23698;52.014;5.190;2023-03-19T08:54:36;101099.53;;;9.45;100.00
37860;BME280;23698;52.014;5.190;2023-03-19T08:57:22;101109.50;;;9.44;100.00
37860;BME280;23698;52.014;5.190;2023-03-19T09:00:10;101111.41;;;9.36;100.00
37860;BME280;23698;52.014;5.190;2023-03-19T09:02:56;101102.84;;;9.24;100.00
37860;BME280;23698;52.014;5.190;2023-03-19T09:05:45;101118.44;;;9.14;100.00
37860;BME280;23698;52.014;5.190;2023-03-19T09:08:32;101123.97;;;9.29;100.00
37860;BME280;23698;52.014;5.190;2023-03-19T09:11:18;101129.91;;;9.24;100.00
37860;BME280;23698;52.014;5.190;2023-03-19T09:14:06;101138.00;;;9.32;100.00
37860;BME280;23698;52.014;5.190;2023-03-19T09:16:52;101143.72;;;9.37;100.00
37860;BME280;23698;52.014;5.190;2023-03-19T09:19:39;101151.22;;;9.19;100.00
37860;BME280;23698;52.014;5.190;2023-03-19T09:22:27;101145.94;;;9.34;100.00
37860;BME280;23698;52.014;5.190;2023-03-19T09:25:14;101143.94;;;9.59;100.00
37860;BME280;23698;52.014;5.190;2023-03-19T09:28:00;101134.28;;;10.11;100.00
37860;BME280;23698;52.014;5.190;2023-03-19T09:30:48;101125.25;;;9.72;100.00
37860;BME280;23698;52.014;5.190;2023-03-19T09:33:35;101127.88;;;9.57;100.00
37860;BME280;23698;52.014;5.190;2023-03-19T09:36:21;101130.22;;;9.60;100.00
37860;BME280;23698;52.014;5.190;2023-03-19T09:39:09;101137.63;;;9.67;100.00
37860;BME280;23698;52.014;5.190;2023-03-19T09:42:04;101129.78;;;10.03;100.00
37860;BME280;23698;52.014;5.190;2023-03-19T09:44:54;101132.41;;;10.11;100.00
37860;BME280;23698;52.014;5.190;2023-03-19T09:47:41;101128.41;;;10.22;100.00
37860;BME280;23698;52.014;5.190;2023-03-19T09:50:30;101120.59;;;10.65;100.00
37860;BME280;23698;52.014;5.190;2023-03-19T09:53:23;101104.97;;;10.97;100.00
37860;BME280;23698;52.014;5.190;2023-03-19T09:56:16;101093.66;;;11.08;100.00
37860;BME280;23698;52.014;5.190;2023-03-19T09:59:03;101086.19;;;10.81;100.00
37860;BME280;23698;52.014;5.190;2023-03-19T10:01:56;101079.13;;;11.16;100.00
37860;BME280;23698;52.014;5.190;2023-03-19T10:04:51;101084.69;;;10.78;100.00
37860;BME280;23698;52.014;5.190;2023-03-19T10:07:55;101082.81;;;10.64;100.00
37860;BME280;23698;52.014;5.190;2023-03-19T10:10:50;101081.97;;;10.63;100.00
37860;BME280;23698;52.014;5.190;2023-03-19T10:13:48;101088.25;;;10.49;100.00
37860;BME280;23698;52.014;5.190;2023-03-19T10:16:38;101093.00;;;10.62;100.00
37860;BME280;23698;52.014;5.190;2023-03-19T10:19:35;101095.34;;;10.80;100.00
37860;BME280;23698;52.014;5.190;2023-03-19T10:22:29;101090.84;;;11.02;100.00
37860;BME280;23698;52.014;5.190;2023-03-19T10:25:19;101091.69;;;10.72;100.00
37860;BME280;23698;52.014;5.190;2023-03-19T10:28:13;101098.06;;;10.94;100.00
37860;BME280;23698;52.014;5.190;2023-03-19T10:31:13;101091.19;;;11.28;100.00
37860;BME280;23698;52.014;5.190;2023-03-19T10:34:12;101092.50;;;11.32;100.00
37860;BME280;23698;52.014;5.190;2023-03-19T10:37:01;101083.91;;;11.29;100.00
37860;BME280;23698;52.014;5.190;2023-03-19T10:39:50;101089.75;;;10.96;100.00
37860;BME280;23698;52.014;5.190;2023-03-19T10:42:52;101092.88;;;11.14;100.00
37860;BME280;23698;52.014;5.190;2023-03-19T10:45:41;101090.47;;;11.05;100.00
37860;BME280;23698;52.014;5.190;2023-03-19T10:48:28;101091.53;;;11.40;100.00
37860;BME280;23698;52.014;5.190;2023-03-19T10:51:20;101095.53;;;10.93;100.00
37860;BME280;23698;52.014;5.190;2023-03-19T10:54:18;101112.94;;;10.84;100.00
37860;BME280;23698;52.014;5.190;2023-03-19T10:57:05;101114.16;;;10.81;100.00
37860;BME280;23698;52.014;5.190;2023-03-19T10:59:51;101129.38;;;10.67;100.00
37860;BME280;23698;52.014;5.190;2023-03-19T11:02:45;101139.03;;;11.00;100.00
37860;BME280;23698;52.014;5.190;2023-03-19T11:05:33;101132.75;;;11.14;100.00
37860;BME280;23698;52.014;5.190;2023-03-19T11:08:20;101135.97;;;11.03;100.00
37860;BME280;23698;52.014;5.190;2023-03-19T11:11:31;101131.19;;;11.05;100.00
37860;BME280;23698;52.014;5.190;2023-03-19T11:14:23;101125.44;;;11.29;100.00
37860;BME280;23698;52.014;5.190;2023-03-19T11:17:17;101121.44;;;11.25;100.00
37860;BME280;23698;52.014;5.190;2023-03-19T11:20:18;101117.97;;;11.02;100.00
37860;BME280;23698;52.014;5.190;2023-03-19T11:23:13;101122.75;;;11.00;100.00
37860;BME280;23698;52.014;5.190;2023-03-19T11:26:00;101118.72;;;10.66;100.00
37860;BME280;23698;52.014;5.190;2023-03-19T11:28:49;101116.84;;;10.81;100.00
37860;BME280;23698;52.014;5.190;2023-03-19T11:31:40;101119.13;;;10.92;100.00
37860;BME280;23698;52.014;5.190;2023-03-19T11:34:35;101119.66;;;10.88;100.00
37860;BME280;23698;52.014;5.190;2023-03-19T11:37:31;101117.34;;;11.00;100.00
37860;BME280;23698;52.014;5.190;2023-03-19T11:40:27;101109.56;;;11.48;100.00
37860;BME280;23698;52.014;5.190;2023-03-19T11:43:40;101094.69;;;11.59;100.00
37860;BME280;23698;52.014;5.190;2023-03-19T11:46:35;101102.63;;;11.60;100.00
37860;BME280;23698;52.014;5.190;2023-03-19T11:49:32;101102.75;;;11.52;100.00
37860;BME280;23698;52.014;5.190;2023-03-19T11:52:28;101106.19;;;11.61;100.00
37860;BME280;23698;52.014;5.190;2023-03-19T11:55:24;101115.16;;;11.25;100.00
37860;BME280;23698;52.014;5.190;2023-03-19T11:58:33;101116.25;;;11.30;100.00
37860;BME280;23698;52.014;5.190;2023-03-19T12:01:35;101102.94;;;11.72;100.00
37860;BME280;23698;52.014;5.190;2023-03-19T12:04:51;101094.75;;;12.08;100.00
37860;BME280;23698;52.014;5.190;2023-03-19T12:07:50;101092.47;;;12.34;100.00
37860;BME280;23698;52.014;5.190;2023-03-19T12:10:51;101084.91;;;12.29;100.00
37860;BME280;23698;52.014;5.190;2023-03-19T12:14:03;101087.44;;;11.87;100.00
37860;BME280;23698;52.014;5.190;2023-03-19T12:17:03;101086.13;;;12.26;100.00
37860;BME280;23698;52.014;5.190;2023-03-19T12:20:05;101088.19;;;12.53;100.00
37860;BME280;23698;52.014;5.190;2023-03-19T12:23:11;101079.41;;;12.22;100.00
37860;BME280;23698;52.014;5.190;2023-03-19T12:26:03;101075.78;;;12.43;100.00
37860;BME280;23698;52.014;5.190;2023-03-19T12:28:57;101066.19;;;12.76;100.00
37860;BME280;23698;52.014;5.190;2023-03-19T12:32:01;101079.63;;;12.91;100.00
37860;BME280;23698;52.014;5.190;2023-03-19T12:34:54;101084.84;;;12.85;100.00
37860;BME280;23698;52.014;5.190;2023-03-19T12:37:48;101084.75;;;13.07;100.00
37860;BME280;23698;52.014;5.190;2023-03-19T12:40:42;101090.38;;;12.64;100.00
37860;BME280;23698;52.014;5.190;2023-03-19T12:43:38;101091.66;;;12.68;100.00
37860;BME280;23698;52.014;5.190;2023-03-19T12:46:30;101082.09;;;13.27;100.00
37860;BME280;23698;52.014;5.190;2023-03-19T12:49:20;101082.22;;;13.60;100.00
37860;BME280;23698;52.014;5.190;2023-03-19T12:52:14;101073.41;;;13.38;100.00
37860;BME280;23698;52.014;5.190;2023-03-19T12:55:05;101091.34;;;12.84;100.00
37860;BME280;23698;52.014;5.190;2023-03-19T12:58:02;101087.88;;;13.04;100.00
37860;BME280;23698;52.014;5.190;2023-03-19T13:00:58;101088.00;;;12.89;100.00
37860;BME280;23698;52.014;5.190;2023-03-19T13:03:53;101087.97;;;13.31;100.00
37860;BME280;23698;52.014;5.190;2023-03-19T13:06:46;101088.81;;;13.25;100.00
37860;BME280;23698;52.014;5.190;2023-03-19T13:09:37;101081.41;;;13.67;100.00
37860;BME280;23698;52.014;5.190;2023-03-19T13:12:27;101079.16;;;14.24;100.00
37860;BME280;23698;52.014;5.190;2023-03-19T13:15:20;101086.06;;;14.20;100.00
37860;BME280;23698;52.014;5.190;2023-03-19T13:18:18;101081.41;;;14.53;100.00
37860;BME280;23698;52.014;5.190;2023-03-19T13:21:20;101080.63;;;13.93;100.00
37860;BME280;23698;52.014;5.190;2023-03-19T13:24:16;101089.25;;;13.28;100.00
37860;BME280;23698;52.014;5.190;2023-03-19T13:27:06;101075.66;;;13.35;100.00
37860;BME280;23698;52.014;5.190;2023-03-19T13:30:10;101079.97;;;13.84;100.00
37860;BME280;23698;52.014;5.190;2023-03-19T13:33:02;101081.25;;;14.22;100.00
37860;BME280;23698;52.014;5.190;2023-03-19T13:35:51;101087.72;;;13.87;100.00
37860;BME280;23698;52.014;5.190;2023-03-19T13:38:39;101085.84;;;14.54;100.00
37860;BME280;23698;52.014;5.190;2023-03-19T13:41:52;101093.41;;;15.31;100.00
37860;BME280;23698;52.014;5.190;2023-03-19T13:44:47;101110.91;;;15.17;100.00
37860;BME280;23698;52.014;5.190;2023-03-19T13:47:40;101102.84;;;14.77;100.00
37860;BME280;23698;52.014;5.190;2023-03-19T13:50:29;101094.66;;;14.57;100.00
37860;BME280;23698;52.014;5.190;2023-03-19T13:53:40;101099.41;;;15.01;100.00
37860;BME280;23698;52.014;5.190;2023-03-19T13:56:27;101087.97;;;15.24;100.00
37860;BME280;23698;52.014;5.190;2023-03-19T13:59:23;101096.34;;;15.36;100.00
37860;BME280;23698;52.014;5.190;2023-03-19T14:02:49;101086.56;;;15.08;100.00
37860;BME280;23698;52.014;5.190;2023-03-19T14:05:38;101082.75;;;15.16;100.00
37860;BME280;23698;52.014;5.190;2023-03-19T14:08:27;101088.56;;;14.54;100.00
37860;BME280;23698;52.014;5.190;2023-03-19T14:11:22;101087.94;;;14.52;100.00
37860;BME280;23698;52.014;5.190;2023-03-19T14:14:13;101083.97;;;14.28;100.00
37860;BME280;23698;52.014;5.190;2023-03-19T14:17:01;101073.44;;;14.52;100.00
37860;BME280;23698;52.014;5.190;2023-03-19T14:19:51;101078.94;;;14.39;100.00
37860;BME280;23698;52.014;5.190;2023-03-19T14:22:40;101084.59;;;14.04;100.00
37860;BME280;23698;52.014;5.190;2023-03-19T14:26:03;101082.06;;;14.49;100.00
37860;BME280;23698;52.014;5.190;2023-03-19T14:29:03;101096.78;;;14.14;100.00
37860;BME280;23698;52.014;5.190;2023-03-19T14:31:52;101091.09;;;14.16;100.00
37860;BME280;23698;52.014;5.190;2023-03-19T14:34:41;101106.00;;;14.07;100.00
37860;BME280;23698;52.014;5.190;2023-03-19T14:37:41;101103.00;;;13.68;100.00
37860;BME280;23698;52.014;5.190;2023-03-19T14:40:32;101106.84;;;14.14;100.00
37860;BME280;23698;52.014;5.190;2023-03-19T14:43:38;101108.22;;;13.70;100.00
37860;BME280;23698;52.014;5.190;2023-03-19T14:46:43;101106.38;;;13.77;100.00
37860;BME280;23698;52.014;5.190;2023-03-19T14:49:50;101111.63;;;13.72;100.00
37860;BME280;23698;52.014;5.190;2023-03-19T14:52:42;101108.84;;;13.58;100.00
37860;BME280;23698;52.014;5.190;2023-03-19T14:55:34;101093.53;;;13.57;100.00
37860;BME280;23698;52.014;5.190;2023-03-19T14:58:21;101088.16;;;13.84;100.00
37860;BME280;23698;52.014;5.190;2023-03-19T15:01:08;101092.28;;;13.53;100.00
37860;BME280;23698;52.014;5.190;2023-03-19T15:03:59;101081.44;;;13.93;100.00
37860;BME280;23698;52.014;5.190;2023-03-19T15:06:50;101077.47;;;13.89;100.00